Time;durP1;ratioP1;P1;durP2;ratioP2;P2;SDS_P1;SDS_P2;PMS_P1;PMS_P2;Temp;Humidity;BMP_temperature;BMP_pressure;BME280_temperature;BME280_humidity;BME280_pressure;Samples;Min_cycle;Max_cycle;Signal;HPM_P1;HPM_P2
2023/12/10 00:01:12;;;;;;;0.60;0.60;;;;;;;3.42;100.00;96862.78;15301911;19;20014;-86
2023/12/10 00:06:37;;;;;;;0.60;0.60;;;;;;;3.46;100.00;96872.16;15296497;19;20035;-87
2023/12/10 00:12:11;;;;;;;1.50;0.70;;;;;;;3.52;100.00;96868.84;15294785;19;20026;-87
2023/12/10 00:17:44;;;;;;;0.60;0.60;;;;;;;3.54;100.00;96870.38;15299051;19;20416;-86
2023/12/10 00:23:19;;;;;;;0.80;0.80;;;;;;;3.51;100.00;96873.38;15296407;19;20035;-87
2023/12/10 00:29:10;;;;;;;0.60;0.60;;;;;;;3.54;100.00;96885.53;15311618;19;20007;-87
2023/12/10 00:34:38;;;;;;;0.80;0.80;;;;;;;3.57;100.00;96887.03;15303981;19;20375;-88
2023/12/10 00:40:09;;;;;;;0.73;0.73;;;;;;;3.55;100.00;96900.50;15299690;19;20026;-87
2023/12/10 00:45:48;;;;;;;0.60;0.60;;;;;;;3.63;100.00;96916.53;15292575;19;20097;-87
2023/12/10 00:51:31;;;;;;;1.13;0.77;;;;;;;3.71;100.00;96931.75;15294737;19;20028;-88
2023/12/10 00:57:03;;;;;;;0.80;0.80;;;;;;;3.74;100.00;96950.09;15297949;19;20073;-90
2023/12/10 01:02:45;;;;;;;0.80;0.80;;;;;;;3.80;100.00;96967.28;15293971;19;20018;-87
2023/12/10 01:08:17;;;;;;;2.15;0.80;;;;;;;3.88;100.00;96983.31;15295705;19;20014;-87
2023/12/10 01:13:56;;;;;;;0.75;0.75;;;;;;;3.93;100.00;96997.03;15294213;19;20032;-87
2023/12/10 01:19:30;;;;;;;0.73;0.68;;;;;;;4.00;100.00;97007.88;15295509;19;20022;-87
2023/12/10 01:24:55;;;;;;;0.70;0.70;;;;;;;4.06;100.00;97019.78;15292618;19;20078;-88
2023/12/10 01:30:23;;;;;;;0.70;0.70;;;;;;;4.12;100.00;97037.81;15063997;19;5000789;-86
2023/12/10 01:35:52;;;;;;;0.70;0.70;;;;;;;4.19;100.00;97036.19;15299093;19;20017;-87
2023/12/10 01:41:21;;;;;;;1.40;0.90;;;;;;;4.26;100.00;97041.72;15293824;19;20017;-89
2023/12/10 01:46:48;;;;;;;0.80;0.80;;;;;;;4.34;100.00;97048.94;15293148;19;20043;-86
2023/12/10 01:52:22;;;;;;;0.90;0.90;;;;;;;4.40;100.00;97062.50;15295177;19;20017;-88
2023/12/10 01:57:52;;;;;;;1.58;1.00;;;;;;;4.53;100.00;97071.91;15299316;19;20039;-87
2023/12/10 02:03:23;;;;;;;0.70;0.70;;;;;;;4.70;100.00;97104.88;15318818;19;20019;-88
2023/12/10 02:09:09;;;;;;;0.70;0.70;;;;;;;4.80;100.00;97110.94;15334720;19;20320;-87
2023/12/10 02:14:48;;;;;;;1.27;0.90;;;;;;;4.94;100.00;97131.72;15301388;19;20017;-86
2023/12/10 02:20:22;;;;;;;1.25;0.98;;;;;;;4.96;100.00;97128.03;15306920;19;20010;-86
2023/12/10 02:25:52;;;;;;;1.98;1.10;;;;;;;4.98;100.00;97137.56;14797294;19;10000279;-87
2023/12/10 02:31:19;;;;;;;2.90;0.95;;;;;;;5.06;100.00;97134.94;15290967;19;20368;-67
2023/12/10 02:36:46;;;;;;;3.58;1.15;;;;;;;5.13;100.00;97161.84;15020764;19;5001877;-64
2023/12/10 02:42:13;;;;;;;3.78;1.00;;;;;;;5.32;100.00;97167.97;15273911;19;20011;-64
2023/12/10 02:47:39;;;;;;;3.95;1.30;;;;;;;5.38;100.00;97175.31;15275960;19;20022;-66
2023/12/10 02:53:03;;;;;;;4.43;1.10;;;;;;;5.47;100.00;97195.72;15272227;19;20022;-64
2023/12/10 02:58:31;;;;;;;4.18;1.40;;;;;;;5.52;100.00;97195.28;15271573;19;20101;-65
2023/12/10 03:03:55;;;;;;;4.82;1.25;;;;;;;5.59;100.00;97190.09;15276773;19;20094;-65
2023/12/10 03:09:20;;;;;;;4.40;1.20;;;;;;;5.51;100.00;97205.09;15274409;19;20031;-65
2023/12/10 03:14:47;;;;;;;3.13;1.20;;;;;;;5.50;100.00;97224.81;15277723;19;20017;-65
2023/12/10 03:20:13;;;;;;;3.95;1.17;;;;;;;5.54;100.00;97225.31;15279680;19;20031;-67
2023/12/10 03:25:37;;;;;;;3.72;1.50;;;;;;;5.55;100.00;97240.34;15270342;19;20014;-65
2023/12/10 03:31:05;;;;;;;6.13;1.30;;;;;;;5.56;100.00;97236.69;15273486;19;20031;-64
2023/12/10 03:36:30;;;;;;;5.57;1.55;;;;;;;5.53;100.00;97245.84;15275228;19;20018;-65
2023/12/10 03:41:55;;;;;;;7.68;1.40;;;;;;;5.50;100.00;97264.88;15278330;19;20074;-66
2023/12/10 03:47:22;;;;;;;4.32;1.33;;;;;;;5.38;100.00;97258.97;15273477;19;20093;-64
2023/12/10 03:52:47;;;;;;;5.85;1.45;;;;;;;5.30;100.00;97264.22;15277403;19;20511;-67
2023/12/10 03:58:11;;;;;;;4.55;1.60;;;;;;;5.24;100.00;97273.72;15265656;19;20014;-67
2023/12/10 04:03:40;;;;;;;7.43;1.60;;;;;;;5.21;100.00;97292.72;15273760;19;20054;-67
2023/12/10 04:09:04;;;;;;;4.43;1.30;;;;;;;5.07;100.00;97287.94;15272087;19;20026;-67
2023/12/10 04:14:29;;;;;;;8.63;2.00;;;;;;;4.92;100.00;97287.66;15272739;19;20491;-65
2023/12/10 04:19:56;;;;;;;8.80;2.15;;;;;;;4.82;100.00;97284.22;15275218;19;20017;-65
2023/12/10 04:25:21;;;;;;;9.43;1.58;;;;;;;4.70;100.00;97299.63;15271707;19;20018;-65
2023/12/10 04:30:45;;;;;;;9.75;2.00;;;;;;;4.60;100.00;97311.19;15267351;19;20341;-65
2023/12/10 04:36:14;;;;;;;13.43;2.40;;;;;;;4.55;100.00;97307.31;15272151;19;20021;-64
2023/12/10 04:41:38;;;;;;;14.02;2.80;;;;;;;4.59;100.00;97336.19;15272824;19;20022;-65
2023/12/10 04:47:03;;;;;;;13.02;2.65;;;;;;;4.69;100.00;97335.28;15268332;19;20515;-64
2023/12/10 04:52:30;;;;;;;9.75;2.20;;;;;;;4.73;100.00;97345.50;15270381;19;20017;-65
2023/12/10 04:57:55;;;;;;;13.00;2.78;;;;;;;4.77;100.00;97356.69;15266450;19;20035;-65
2023/12/10 05:03:20;;;;;;;8.93;2.33;;;;;;;4.83;100.00;97368.59;15267219;19;20010;-65
2023/12/10 05:08:48;;;;;;;12.07;2.50;;;;;;;4.86;100.00;97371.84;15268800;19;20369;-62
2023/12/10 05:14:08;;;;;;;13.15;2.90;;;;;;;4.87;100.00;97373.50;15270548;19;20074;-64
2023/12/10 05:19:32;;;;;;;10.20;1.90;;;;;;;4.74;100.00;97389.03;15271529;19;20086;-64
2023/12/10 05:25:00;;;;;;;9.55;1.98;;;;;;;4.61;100.00;97394.72;15270032;19;20031;-64
2023/12/10 05:30:31;;;;;;;10.95;2.30;;;;;;;4.58;100.00;97398.53;15268965;19;20019;-65
2023/12/10 05:35:57;;;;;;;11.02;2.50;;;;;;;4.62;100.00;97407.94;15264986;19;20022;-67
2023/12/10 05:41:24;;;;;;;11.55;2.40;;;;;;;4.62;100.00;97404.41;15271228;19;20014;-64
2023/12/10 05:46:50;;;;;;;14.25;2.75;;;;;;;4.56;100.00;97416.50;15266549;19;20074;-67
2023/12/10 05:52:15;;;;;;;10.68;2.60;;;;;;;4.55;100.00;97424.66;15277961;19;20038;-64
2023/12/10 05:57:44;;;;;;;11.68;2.45;;;;;;;4.57;100.00;97428.84;15275946;19;20021;-63
2023/12/10 06:03:09;;;;;;;11.10;2.60;;;;;;;4.59;100.00;97452.72;15283947;19;20434;-64
2023/12/10 06:08:34;;;;;;;10.10;2.50;;;;;;;4.59;100.00;97468.72;15274198;19;20585;-65
2023/12/10 06:14:01;;;;;;;9.77;2.30;;;;;;;4.59;100.00;97471.38;15284261;19;20081;-66
2023/12/10 06:19:26;;;;;;;15.32;3.30;;;;;;;4.63;100.00;97481.63;15286608;19;20039;-66
2023/12/10 06:24:50;;;;;;;12.68;2.80;;;;;;;4.73;100.00;97488.75;15283399;19;20010;-66
2023/12/10 06:30:18;;;;;;;18.38;3.15;;;;;;;4.82;100.00;97495.88;15279581;19;20527;-67
2023/12/10 06:35:42;;;;;;;17.65;2.83;;;;;;;4.86;100.00;97507.94;15282028;19;20019;-65
2023/12/10 06:41:08;;;;;;;14.73;3.17;;;;;;;4.93;100.00;97509.00;15277771;19;20019;-67
2023/12/10 06:46:35;;;;;;;16.13;2.83;;;;;;;5.00;100.00;97524.44;15279681;19;20022;-66
2023/12/10 06:52:00;;;;;;;13.65;2.63;;;;;;;5.05;100.00;97522.16;15284332;19;20074;-66
2023/12/10 06:57:26;;;;;;;13.15;2.70;;;;;;;5.04;100.00;97531.16;15279337;19;20010;-66
2023/12/10 07:02:54;;;;;;;15.98;3.25;;;;;;;5.01;100.00;97542.13;15282094;19;20015;-66
2023/12/10 07:08:19;;;;;;;12.35;3.05;;;;;;;5.03;100.00;97525.00;15278673;19;20015;-65
2023/12/10 07:13:44;;;;;;;12.43;2.75;;;;;;;5.03;100.00;97525.00;15274456;19;20019;-66
2023/12/10 07:19:11;;;;;;;12.77;2.80;;;;;;;5.06;100.00;97523.84;15284525;19;20025;-66
2023/12/10 07:24:36;;;;;;;14.20;3.08;;;;;;;5.20;100.00;97527.84;15308480;19;20277;-66
2023/12/10 07:30:00;;;;;;;12.95;3.42;;;;;;;5.36;100.00;97535.19;15280591;19;20015;-64
2023/12/10 07:35:28;;;;;;;14.07;3.33;;;;;;;5.55;100.00;97540.41;15260944;19;20011;-54
2023/12/10 07:40:52;;;;;;;13.38;2.78;;;;;;;5.68;100.00;97539.22;15277994;19;20074;-54
2023/12/10 07:46:17;;;;;;;12.30;2.70;;;;;;;5.77;100.00;97545.44;15270052;19;20015;-55
2023/12/10 07:51:44;;;;;;;12.15;2.60;;;;;;;5.84;100.00;97559.91;15278622;19;20078;-53
2023/12/10 07:57:09;;;;;;;12.68;2.78;;;;;;;5.94;100.00;97554.50;15277622;19;20491;-49
2023/12/10 08:02:33;;;;;;;13.32;2.80;;;;;;;5.98;100.00;97550.50;15276098;19;20018;-55
2023/12/10 08:08:07;;;;;;;13.43;3.10;;;;;;;6.01;100.00;97545.72;15275267;19;20018;-55
2023/12/10 08:13:33;;;;;;;13.07;2.72;;;;;;;6.06;100.00;97529.19;15274635;19;20077;-49
2023/12/10 08:19:00;;;;;;;10.95;2.63;;;;;;;6.07;100.00;97532.72;15272115;19;20368;-57
2023/12/10 08:24:28;;;;;;;10.82;2.60;;;;;;;6.10;100.00;97551.16;15270453;19;20016;-51
2023/12/10 08:29:52;;;;;;;10.80;2.63;;;;;;;6.14;100.00;97539.97;15271109;19;20017;-53
2023/12/10 08:35:24;;;;;;;11.27;3.05;;;;;;;6.17;100.00;97549.53;15265830;19;20099;-53
2023/12/10 08:40:52;;;;;;;9.93;2.65;;;;;;;6.18;100.00;97535.16;15273461;19;20018;-57
2023/12/10 08:46:17;;;;;;;9.65;2.50;;;;;;;6.18;100.00;97516.44;15270403;19;20018;-54
2023/12/10 08:51:43;;;;;;;8.30;2.10;;;;;;;6.19;100.00;97527.97;15247642;19;20351;-54
2023/12/10 08:57:10;;;;;;;9.02;2.00;;;;;;;6.23;100.00;97537.34;15272668;19;20033;-53
2023/12/10 09:02:35;;;;;;;7.53;1.90;;;;;;;6.25;100.00;97546.91;15270306;19;20018;-54
2023/12/10 09:08:01;;;;;;;7.60;2.00;;;;;;;6.25;100.00;97557.59;15269643;19;20076;-54
2023/12/10 09:13:29;;;;;;;9.20;2.47;;;;;;;6.23;100.00;97556.94;15270253;19;20479;-52
2023/12/10 09:18:55;;;;;;;9.23;2.05;;;;;;;6.20;100.00;97577.78;15271478;19;20027;-54
2023/12/10 09:24:22;;;;;;;8.75;2.00;;;;;;;6.20;100.00;97585.81;15262965;19;20326;-54
2023/12/10 09:29:50;;;;;;;9.48;2.20;;;;;;;6.23;100.00;97569.47;15269059;19;20035;-55
2023/12/10 09:35:21;;;;;;;8.60;2.10;;;;;;;6.21;100.00;97574.13;15264184;19;20019;-54
2023/12/10 09:40:47;;;;;;;6.97;1.80;;;;;;;6.20;100.00;97588.47;15243000;19;20006;-56
2023/12/10 09:46:17;;;;;;;8.43;1.77;;;;;;;6.17;100.00;97594.97;15238142;19;20261;-53
2023/12/10 09:51:42;;;;;;;6.32;1.60;;;;;;;6.17;100.00;97592.31;15253980;19;20035;-57
2023/12/10 09:57:07;;;;;;;6.50;1.60;;;;;;;6.16;100.00;97590.63;15264991;19;20014;-52
2023/12/10 10:02:39;;;;;;;6.05;1.50;;;;;;;6.14;100.00;97593.47;15262623;19;20019;-57
2023/12/10 10:08:05;;;;;;;9.23;2.00;;;;;;;6.11;100.00;97585.75;15264439;19;20019;-56
2023/12/10 10:13:31;;;;;;;7.03;1.50;;;;;;;6.11;100.00;97591.09;15262001;19;20018;-55
2023/12/10 10:18:59;;;;;;;7.20;1.98;;;;;;;6.11;100.00;97593.75;15261541;19;20025;-54
2023/12/10 10:24:23;;;;;;;5.70;1.50;;;;;;;6.15;100.00;97583.59;15256198;19;20413;-56
2023/12/10 10:29:53;;;;;;;7.70;1.98;;;;;;;6.16;100.00;97595.97;15260550;19;20484;-55
2023/12/10 10:35:28;;;;;;;6.03;1.70;;;;;;;6.19;100.00;97594.81;15260784;19;20018;-56
2023/12/10 10:41:00;;;;;;;7.60;1.70;;;;;;;6.21;100.00;97604.41;15276957;19;20631;-57
2023/12/10 10:46:27;;;;;;;6.03;1.88;;;;;;;6.22;100.00;97615.91;15269596;19;20448;-56
2023/12/10 10:51:54;;;;;;;7.07;1.70;;;;;;;6.23;100.00;97613.09;15273552;19;20475;-56
2023/12/10 10:57:19;;;;;;;9.10;2.10;;;;;;;6.25;100.00;97620.97;15274151;19;20014;-53
2023/12/10 11:02:44;;;;;;;8.27;1.92;;;;;;;6.29;100.00;97622.34;15272351;19;20014;-55
2023/12/10 11:08:13;;;;;;;5.47;1.60;;;;;;;6.33;100.00;97634.41;15275175;19;20409;-56
2023/12/10 11:13:48;;;;;;;7.05;1.92;;;;;;;6.35;100.00;97637.78;15270039;19;20018;-56
2023/12/10 11:19:13;;;;;;;10.35;2.40;;;;;;;6.40;100.00;97639.97;15267813;19;20450;-55
2023/12/10 11:24:40;;;;;;;9.70;2.50;;;;;;;6.43;100.00;97645.03;15267070;19;21012;-55
2023/12/10 11:30:05;;;;;;;8.15;2.22;;;;;;;6.47;100.00;97641.88;15268037;19;20031;-54
2023/12/10 11:35:30;;;;;;;6.07;2.35;;;;;;;6.48;100.00;97651.59;15272196;19;20363;-56
2023/12/10 11:40:58;;;;;;;7.45;2.05;;;;;;;6.54;100.00;97641.25;15275784;19;20353;-57
2023/12/10 11:46:23;;;;;;;6.25;1.83;;;;;;;6.54;100.00;97650.16;15271154;19;20114;-55
2023/12/10 11:52:02;;;;;;;6.22;1.70;;;;;;;6.56;100.00;97650.84;15272272;19;20473;-52
2023/12/10 11:57:30;;;;;;;5.78;1.58;;;;;;;6.55;100.00;97648.28;15272047;19;20027;-55
2023/12/10 12:02:57;;;;;;;5.50;1.70;;;;;;;6.55;100.00;97654.50;15265776;19;20014;-56
2023/12/10 12:08:22;;;;;;;6.22;1.73;;;;;;;6.58;100.00;97650.66;15274638;19;20098;-55
2023/12/10 12:13:50;;;;;;;8.93;2.00;;;;;;;6.62;100.00;97649.38;15270712;19;20470;-55
2023/12/10 12:19:27;;;;;;;6.18;1.70;;;;;;;6.68;100.00;97650.59;15271276;19;20006;-53
2023/12/10 12:24:51;;;;;;;5.95;1.55;;;;;;;6.69;100.00;97653.09;15267659;19;20035;-53
2023/12/10 12:30:19;;;;;;;5.88;1.77;;;;;;;6.67;100.00;97639.03;15267431;19;20018;-53
2023/12/10 12:35:44;;;;;;;5.18;1.52;;;;;;;6.63;100.00;97638.50;15262194;19;20086;-55
2023/12/10 12:41:08;;;;;;;6.72;1.85;;;;;;;6.53;100.00;97626.19;15270142;19;20018;-57
2023/12/10 12:46:36;;;;;;;7.13;1.70;;;;;;;6.50;100.00;97637.22;15264371;19;20077;-56
2023/12/10 12:52:02;;;;;;;8.05;1.55;;;;;;;6.50;100.00;97646.09;15261984;19;20046;-55
2023/12/10 12:57:28;;;;;;;8.52;1.80;;;;;;;6.51;100.00;97654.97;15267748;19;20043;-54
2023/12/10 13:02:56;;;;;;;7.47;1.92;;;;;;;6.57;100.00;97662.38;15267876;19;20018;-53
2023/12/10 13:08:21;;;;;;;9.07;2.03;;;;;;;6.61;100.00;97663.75;15263095;19;20822;-54
2023/12/10 13:13:46;;;;;;;6.00;1.77;;;;;;;6.63;100.00;97675.97;15267074;19;20089;-53
2023/12/10 13:19:14;;;;;;;9.05;2.00;;;;;;;6.67;100.00;97671.16;15269581;19;20014;-60
2023/12/10 13:24:39;;;;;;;6.65;1.77;;;;;;;6.72;100.00;97657.28;15266075;19;20371;-55
2023/12/10 13:30:03;;;;;;;8.85;2.10;;;;;;;6.75;100.00;97641.78;15265555;19;21193;-57
2023/12/10 13:35:37;;;;;;;8.45;2.10;;;;;;;6.76;100.00;97646.13;15248487;19;20011;-59
2023/12/10 13:41:02;;;;;;;7.10;2.08;;;;;;;6.81;100.00;97656.38;15256032;19;20019;-57
2023/12/10 13:46:28;;;;;;;8.27;2.25;;;;;;;6.85;100.00;97649.69;15259496;19;20010;-56
2023/12/10 13:51:57;;;;;;;6.60;1.92;;;;;;;6.86;100.00;97661.25;15260335;19;20022;-56
2023/12/10 13:57:26;;;;;;;9.67;2.20;;;;;;;7.00;100.00;97652.63;15262043;19;20007;-59
2023/12/10 14:02:52;;;;;;;10.63;2.30;;;;;;;7.23;100.00;97650.28;15261922;19;20655;-57
2023/12/10 14:08:20;;;;;;;11.52;2.25;;;;;;;7.40;100.00;97636.97;15263569;19;20100;-58
2023/12/10 14:13:45;;;;;;;9.57;2.28;;;;;;;7.59;100.00;97613.59;15268435;19;20364;-57
2023/12/10 14:19:10;;;;;;;7.85;2.22;;;;;;;7.64;100.00;97590.66;15278060;19;20018;-58
2023/12/10 14:24:38;;;;;;;9.13;2.08;;;;;;;7.59;100.00;97582.25;15276971;19;20025;-55
2023/12/10 14:30:04;;;;;;;8.20;1.98;;;;;;;7.65;100.00;97581.59;15275799;19;20023;-59
2023/12/10 14:35:36;;;;;;;8.07;2.20;;;;;;;7.59;100.00;97579.56;15270888;19;20021;-59
2023/12/10 14:41:03;;;;;;;8.20;2.20;;;;;;;7.43;100.00;97583.03;15280287;19;20010;-54
2023/12/10 14:46:28;;;;;;;6.55;1.98;;;;;;;7.25;100.00;97599.19;15269139;19;20082;-59
2023/12/10 14:51:54;;;;;;;7.72;2.33;;;;;;;7.09;100.00;97594.59;15274236;19;20022;-55
2023/12/10 14:57:22;;;;;;;6.75;1.95;;;;;;;6.99;100.00;97612.63;15279394;19;20625;-59
2023/12/10 15:02:47;;;;;;;9.93;2.85;;;;;;;6.84;100.00;97615.06;15277267;19;20022;-57
2023/12/10 15:08:13;;;;;;;9.82;2.67;;;;;;;6.69;100.00;97623.66;15277759;19;20007;-57
2023/12/10 15:13:41;;;;;;;7.78;2.72;;;;;;;6.54;100.00;97625.19;15276254;19;20739;-56
2023/12/10 15:19:06;;;;;;;8.70;2.65;;;;;;;6.41;100.00;97623.75;15276263;19;20471;-55
2023/12/10 15:24:30;;;;;;;7.40;2.30;;;;;;;6.24;100.00;97632.66;15274710;19;20344;-59
2023/12/10 15:29:58;;;;;;;8.68;1.98;;;;;;;6.02;100.00;97642.81;15275825;19;20538;-55
2023/12/10 15:35:24;;;;;;;8.18;2.40;;;;;;;5.87;100.00;97637.13;15273386;19;20546;-54
2023/12/10 15:40:48;;;;;;;9.88;2.45;;;;;;;5.91;100.00;97645.69;15277408;19;20043;-56
2023/12/10 15:46:15;;;;;;;10.43;2.25;;;;;;;5.91;100.00;97633.13;15270982;19;20106;-55
2023/12/10 15:51:40;;;;;;;7.72;2.40;;;;;;;5.88;100.00;97633.44;15273560;19;20018;-54
2023/12/10 15:57:05;;;;;;;10.45;2.63;;;;;;;5.82;100.00;97634.06;15274898;19;20018;-58
2023/12/10 16:02:33;;;;;;;14.43;3.03;;;;;;;5.72;100.00;97628.75;15273240;19;20018;-58
2023/12/10 16:07:59;;;;;;;9.45;2.42;;;;;;;5.61;100.00;97612.94;15275485;19;20010;-59
2023/12/10 16:13:25;;;;;;;8.45;2.53;;;;;;;5.47;100.00;97627.66;15271773;19;20015;-55
2023/12/10 16:18:54;;;;;;;9.52;2.50;;;;;;;5.34;100.00;97620.00;15272084;19;20022;-58
2023/12/10 16:24:20;;;;;;;9.70;2.42;;;;;;;5.33;100.00;97615.63;15275319;19;20014;-60
2023/12/10 16:29:45;;;;;;;10.00;2.80;;;;;;;5.39;100.00;97617.69;15273721;19;20015;-58
2023/12/10 16:35:14;;;;;;;6.90;2.13;;;;;;;5.59;100.00;97622.91;15268028;19;20506;-59
2023/12/10 16:40:40;;;;;;;8.00;2.30;;;;;;;5.80;100.00;97607.47;15272120;19;20010;-58
2023/12/10 16:46:05;;;;;;;10.23;2.22;;;;;;;6.05;100.00;97604.22;15268670;19;20018;-55
2023/12/10 16:51:32;;;;;;;10.40;2.38;;;;;;;6.17;100.00;97593.13;15261531;19;20031;-56
2023/12/10 16:56:57;;;;;;;9.98;2.50;;;;;;;6.27;100.00;97565.50;15268950;19;20019;-57
2023/12/10 17:02:23;;;;;;;10.38;2.38;;;;;;;6.34;100.00;97555.00;15267364;19;20074;-58
2023/12/10 17:07:52;;;;;;;8.60;2.33;;;;;;;6.36;100.00;97537.78;15270181;19;20022;-59
2023/12/10 17:13:16;;;;;;;9.10;2.60;;;;;;;6.39;100.00;97532.16;15265998;19;20082;-57
2023/12/10 17:18:41;;;;;;;10.60;2.55;;;;;;;6.47;100.00;97521.47;15269574;19;20014;-57
2023/12/10 17:24:09;;;;;;;8.95;2.30;;;;;;;6.53;100.00;97521.84;15260365;19;20026;-58
2023/12/10 17:29:35;;;;;;;9.40;2.55;;;;;;;6.57;100.00;97512.50;15268379;19;20006;-58
2023/12/10 17:35:01;;;;;;;10.43;2.45;;;;;;;6.67;100.00;97507.06;15259439;19;20027;-56
2023/12/10 17:40:28;;;;;;;7.68;2.17;;;;;;;6.75;100.00;97486.53;15267552;19;20411;-58
2023/12/10 17:45:52;;;;;;;8.23;2.10;;;;;;;6.90;100.00;97491.25;15261574;19;20045;-55
2023/12/10 17:51:17;;;;;;;9.65;2.30;;;;;;;7.02;100.00;97484.59;15261875;19;20537;-55
2023/12/10 17:56:44;;;;;;;5.68;2.00;;;;;;;7.00;100.00;97467.84;15254551;19;20015;-54
2023/12/10 18:02:10;;;;;;;10.75;2.92;;;;;;;7.02;100.00;97457.81;15266837;19;20025;-63
2023/12/10 18:07:35;;;;;;;9.18;2.38;;;;;;;7.03;100.00;97454.16;15266312;19;20404;-56
2023/12/10 18:13:03;;;;;;;10.82;2.42;;;;;;;7.03;100.00;97451.47;15264554;19;20010;-55
2023/12/10 18:18:29;;;;;;;8.35;2.28;;;;;;;7.07;100.00;97431.41;15262810;19;20010;-57
2023/12/10 18:23:54;;;;;;;9.30;2.40;;;;;;;7.10;100.00;97475.75;15263115;19;20088;-57
2023/12/10 18:29:21;;;;;;;11.05;2.58;;;;;;;7.18;100.00;97456.22;15260073;19;20022;-60
2023/12/10 18:34:50;;;;;;;8.88;2.45;;;;;;;7.23;100.00;97437.81;15261508;19;20358;-60
2023/12/10 18:40:16;;;;;;;10.27;2.50;;;;;;;7.27;100.00;97443.69;15264901;19;20534;-51
2023/12/10 18:45:45;;;;;;;8.85;2.30;;;;;;;7.30;100.00;97429.94;15257317;19;20014;-57
2023/12/10 18:51:10;;;;;;;11.80;2.50;;;;;;;7.32;100.00;97412.72;15253443;19;20019;-60
2023/12/10 18:56:35;;;;;;;9.25;2.33;;;;;;;7.47;100.00;97412.03;15258181;19;20011;-56
2023/12/10 19:02:02;;;;;;;11.65;2.78;;;;;;;7.55;100.00;97394.13;15272636;19;20578;-59
2023/12/10 19:07:27;;;;;;;11.45;2.50;;;;;;;7.60;100.00;97395.47;15279216;19;20078;-51
2023/12/10 19:12:52;;;;;;;10.07;2.42;;;;;;;7.63;100.00;97389.78;15274457;19;20015;-56
2023/12/10 19:18:19;;;;;;;8.63;2.35;;;;;;;7.70;100.00;97390.78;15277511;19;20023;-58
2023/12/10 19:23:44;;;;;;;11.45;3.00;;;;;;;7.74;100.00;97364.44;15272395;19;20026;-57
2023/12/10 19:29:08;;;;;;;9.40;2.50;;;;;;;7.72;100.00;97372.69;15275501;19;20014;-59
2023/12/10 19:34:35;;;;;;;15.00;3.35;;;;;;;7.67;100.00;97378.53;15259837;19;20029;-53
2023/12/10 19:40:00;;;;;;;11.48;2.88;;;;;;;7.65;100.00;97339.50;15248792;19;20023;-55
2023/12/10 19:45:26;;;;;;;10.68;2.97;;;;;;;7.75;100.00;97376.84;15274133;19;20022;-53
2023/12/10 19:50:54;;;;;;;10.63;2.50;;;;;;;7.83;100.00;97358.06;15276303;19;20035;-58
2023/12/10 19:56:18;;;;;;;11.98;4.47;;;;;;;7.81;100.00;97312.66;15273136;19;20021;-55
2023/12/10 20:01:44;;;;;;;12.00;4.35;;;;;;;7.79;100.00;97289.72;15274987;19;20022;-57
2023/12/10 20:07:11;;;;;;;11.75;3.30;;;;;;;7.75;100.00;97258.91;15266988;19;20489;-55
2023/12/10 20:12:36;;;;;;;10.73;4.18;;;;;;;7.71;100.00;97279.84;15269946;19;20039;-54
2023/12/10 20:18:01;;;;;;;13.70;4.72;;;;;;;7.66;100.00;97277.69;15275345;19;20252;-56
2023/12/10 20:23:28;;;;;;;14.90;3.20;;;;;;;7.63;100.00;97267.31;15269452;19;20074;-55
2023/12/10 20:28:53;;;;;;;11.98;3.30;;;;;;;7.62;100.00;97260.25;15268935;19;20085;-54
2023/12/10 20:34:24;;;;;;;9.90;2.80;;;;;;;7.62;100.00;97249.53;15266453;19;20014;-54
2023/12/10 20:39:56;;;;;;;9.98;2.42;;;;;;;7.59;100.00;97212.34;15260353;19;20820;-56
2023/12/10 20:45:27;;;;;;;8.02;2.45;;;;;;;7.60;100.00;97202.50;15271018;19;20444;-55
2023/12/10 20:50:53;;;;;;;9.98;2.47;;;;;;;7.59;100.00;97209.66;15269862;19;20019;-58
2023/12/10 20:56:21;;;;;;;7.70;2.35;;;;;;;7.59;100.00;97190.09;15267207;19;20081;-54
2023/12/10 21:01:46;;;;;;;12.18;2.95;;;;;;;7.57;100.00;97174.19;15264620;19;20018;-59
2023/12/10 21:07:10;;;;;;;9.40;2.50;;;;;;;7.52;100.00;97158.63;15267864;19;20031;-52
2023/12/10 21:12:37;;;;;;;13.88;2.95;;;;;;;7.43;100.00;97148.09;15255101;19;20354;-52
2023/12/10 21:18:03;;;;;;;12.10;2.88;;;;;;;7.31;100.00;97137.75;15267219;19;20014;-53
2023/12/10 21:23:32;;;;;;;9.82;3.08;;;;;;;7.19;100.00;97123.88;15267361;19;20475;-53
2023/12/10 21:28:59;;;;;;;8.23;2.28;;;;;;;7.07;100.00;97120.75;15268048;19;20014;-53
2023/12/10 21:34:30;;;;;;;9.55;2.33;;;;;;;7.00;100.00;97111.72;15265223;19;20039;-49
2023/12/10 21:39:55;;;;;;;;;;;;;;;6.90;100.00;97095.00;15267717;19;20097;-52
2023/12/10 21:45:26;;;;;;;8.98;2.35;;;;;;;6.82;100.00;97092.38;15260273;19;19918;-53
2023/12/10 21:50:51;;;;;;;11.13;2.50;;;;;;;6.71;100.00;97088.19;15266595;19;20078;-54
2023/12/10 21:56:18;;;;;;;9.20;2.20;;;;;;;6.62;100.00;97076.69;15262685;19;20499;-55
2023/12/10 22:01:45;;;;;;;8.40;2.10;;;;;;;6.51;100.00;97069.00;15257961;19;20018;-54
2023/12/10 22:07:10;;;;;;;9.30;2.35;;;;;;;6.42;100.00;97082.38;15258178;19;20014;-60
2023/12/10 22:12:36;;;;;;;5.68;1.90;;;;;;;6.27;100.00;97073.38;15262732;19;20023;-57
2023/12/10 22:18:03;;;;;;;6.95;2.10;;;;;;;6.13;100.00;97067.66;15262119;19;20027;-57
2023/12/10 22:23:31;;;;;;;7.82;1.70;;;;;;;6.04;100.00;97068.69;15265684;19;20021;-57
2023/12/10 22:28:56;;;;;;;6.32;2.13;;;;;;;5.98;100.00;97082.66;15266885;19;20011;-56
2023/12/10 22:34:23;;;;;;;4.72;1.55;;;;;;;5.91;100.00;97076.31;15271388;19;20022;-56
2023/12/10 22:39:48;;;;;;;6.50;1.60;;;;;;;5.89;100.00;97079.13;15282264;19;20010;-57
2023/12/10 22:45:14;;;;;;;7.55;2.00;;;;;;;5.86;100.00;97077.63;15277419;19;20021;-56
2023/12/10 22:50:42;;;;;;;6.18;1.70;;;;;;;5.83;100.00;97087.81;15275383;19;20015;-57
2023/12/10 22:56:08;;;;;;;6.18;1.85;;;;;;;5.77;100.00;97067.09;15275716;19;20748;-57
2023/12/10 23:01:35;;;;;;;7.57;1.75;;;;;;;5.75;100.00;97075.28;15278968;19;20010;-53
2023/12/10 23:07:03;;;;;;;5.30;1.60;;;;;;;5.75;100.00;97058.41;15275800;19;20042;-56
2023/12/10 23:12:29;;;;;;;5.95;1.42;;;;;;;5.67;100.00;97061.91;15277542;19;20010;-57
2023/12/10 23:17:55;;;;;;;5.43;1.65;;;;;;;5.68;100.00;97051.03;15274903;19;20031;-57
2023/12/10 23:23:22;;;;;;;3.83;1.40;;;;;;;5.69;100.00;97043.88;15274172;19;20548;-55
2023/12/10 23:28:48;;;;;;;5.68;1.67;;;;;;;5.70;100.00;97027.69;15278523;19;20479;-57
2023/12/10 23:34:12;;;;;;;3.60;1.33;;;;;;;5.74;100.00;97036.19;15268532;19;20860;-55
2023/12/10 23:39:39;;;;;;;3.45;1.30;;;;;;;5.82;100.00;97059.41;15264884;19;20011;-55
2023/12/10 23:45:04;;;;;;;3.58;1.27;;;;;;;5.91;100.00;97070.97;15270077;19;20031;-56
2023/12/10 23:50:29;;;;;;;2.75;1.10;;;;;;;5.96;100.00;97068.63;15278952;19;20031;-55
2023/12/10 23:55:56;;;;;;;4.30;1.30;;;;;;;6.04;100.00;97068.69;15272485;19;20363;-55
